Main page
METAR-TAF:

METAR-TAF

Airports :

Heathrow Airport

London-Heathrow, England

latitude: 51-29N, longitude: 000-27W, elevation: 24 m

Current weather observation

The report was made 19 minutes ago, at 18:50 UTC
Wind 8 kt from the South/Southwest
Temperature 11°C
Humidity 82%
Pressure 1025 hPa
Visibility 10 km or more

METAR: EGLL 131850Z AUTO 21008KT 9999 NCD 11/08 Q1025 NOSIG

Time: 19:09 (19:09 UTC)

Forecast

The report was made 2 hours and 6 minutes ago, at 17:03 UTC
Forecast valid from 13 at 18 UTC to 14 at 24 UTC
Wind 8 kt from the South
Visibility 10 km or more
Few clouds at a height of 3000 ft
Temporary
from 14 at 20 UTC to 14 at 24 UTC
Visibility: 8000 m
Broken clouds at a height of 1400 ft

TAF: EGLL 131703Z 1318/1424 19008KT 9999 FEW030 TEMPO 1420/1424 8000 BKN014

Weather observations and forecasts of more than 4000 airports (METAR and TAF reports).

The available stations are represented by yellow and red dots on the map.

Hover mouse over dot to see the name of the station.

Then click to see weather observations and forecasts.

To change the map : click on the green buttons with a black cross to zoom in, on the green button with a dash to zoom out, or on the green arrows for adjacent maps.


METAR-TAF: